Terminal Aerodrome Forecast
Issued by NWS

Home | Current Version | Previous Version | Text Only | Print | Product List | Glossary On
Versions: 1 2 3 4 5 6 7 8 9 10 11 12 13
000
FTUS45 KVEF 250500
TAFVGT
TAF
KVGT 250532Z 2506/2606 14008G16KT P6SM FEW150 SCT250
     FM250900 17006KT P6SM FEW150 SCT250
     FM251900 17010G20KT P6SM SCT100 BKN150=

USA.gov is the U.S. government's official web portal to all federal, state and local government web resources and services.